createdAt,value
2019-01-18T00:01:49.059Z,100334.39
2019-01-18T00:04:56.280Z,100341.97
2019-01-18T00:08:04.251Z,100344.45
2019-01-18T00:11:11.368Z,100351.34
2019-01-18T00:14:18.559Z,100361.00
2019-01-18T00:17:25.655Z,100367.67
2019-01-18T00:20:32.674Z,100367.66
2019-01-18T00:23:39.787Z,100371.06
2019-01-18T00:26:46.805Z,100384.97
2019-01-18T00:29:53.846Z,100389.13
2019-01-18T00:33:00.874Z,100398.50
2019-01-18T00:36:17.060Z,100401.52
2019-01-18T00:39:23.344Z,100410.81
2019-01-18T00:42:30.462Z,100421.39
2019-01-18T00:45:46.512Z,100424.73
2019-01-18T00:48:53.528Z,100439.16
2019-01-18T00:52:00.535Z,100449.00
2019-01-18T00:55:08.034Z,100456.97
2019-01-18T00:58:15.169Z,100457.76
2019-01-18T01:01:22.296Z,100464.17
2019-01-18T01:04:29.444Z,100471.76
2019-01-18T01:07:36.468Z,100480.77
2019-01-18T01:10:43.586Z,100483.45
2019-01-18T01:13:50.599Z,100486.27
2019-01-18T01:16:57.708Z,100498.86
2019-01-18T01:20:05.856Z,100507.28
2019-01-18T01:23:12.979Z,100511.71
2019-01-18T01:26:20.007Z,100522.67
2019-01-18T01:29:27.010Z,100531.19
2019-01-18T01:32:34.135Z,100542.88
2019-01-18T01:35:41.158Z,100550.06
2019-01-18T01:38:48.181Z,100556.05
2019-01-18T01:41:54.701Z,100572.16
2019-01-18T01:45:01.729Z,100578.09
2019-01-18T01:48:08.842Z,100584.86
2019-01-18T01:51:15.961Z,100590.33
2019-01-18T01:54:22.976Z,100595.81
2019-01-18T01:57:29.992Z,100607.17
2019-01-18T02:00:37.179Z,100611.42
2019-01-18T02:03:44.199Z,100620.63
2019-01-18T02:06:51.210Z,100627.06
2019-01-18T02:10:08.599Z,100632.95
2019-01-18T02:13:15.812Z,100640.48
2019-01-18T02:16:22.825Z,100646.36
2019-01-18T02:19:29.882Z,100662.73
2019-01-18T02:22:36.931Z,100663.56
2019-01-18T02:25:43.949Z,100664.88
2019-01-18T02:29:00.017Z,100673.30
2019-01-18T02:32:16.745Z,100679.58
2019-01-18T02:35:23.967Z,100695.53
2019-01-18T02:38:30.982Z,100692.16
2019-01-18T02:41:37.998Z,100690.23
2019-01-18T02:44:45.011Z,100693.61
2019-01-18T02:47:52.137Z,100702.45
2019-01-18T02:50:59.239Z,100697.45
2019-01-18T02:54:06.368Z,100706.27
2019-01-18T02:57:13.409Z,100704.95
2019-01-18T03:00:29.472Z,100709.14
2019-01-18T03:03:36.487Z,100707.91
2019-01-18T03:06:43.695Z,100713.40
2019-01-18T03:09:49.196Z,100710.47
2019-01-18T03:12:56.312Z,100710.06
2019-01-18T03:16:02.017Z,100711.73
2019-01-18T03:19:09.024Z,100714.30
2019-01-18T03:22:16.162Z,100726.06
2019-01-18T03:25:28.293Z,100726.06
2019-01-18T03:28:35.276Z,100733.25
2019-01-18T03:31:42.288Z,100744.20
2019-01-18T03:34:49.412Z,100752.63
2019-01-18T03:37:56.449Z,100758.48
2019-01-18T03:41:12.683Z,100747.13
2019-01-18T03:44:19.853Z,100745.86
2019-01-18T03:47:26.823Z,100759.75
2019-01-18T03:50:33.848Z,100772.37
2019-01-18T03:53:41.079Z,100774.06
2019-01-18T03:56:48.107Z,100784.99
2019-01-18T03:59:55.221Z,100786.67
2019-01-18T04:03:02.253Z,100795.52
2019-01-18T04:06:09.284Z,100795.52
2019-01-18T04:09:25.391Z,100796.78
2019-01-18T04:12:32.439Z,100811.06
2019-01-18T04:15:39.555Z,100813.58
2019-01-18T04:18:46.590Z,100831.22
2019-01-18T04:21:53.710Z,100830.81
2019-01-18T04:25:00.854Z,100836.26
2019-01-18T04:28:07.909Z,100839.20
2019-01-18T04:31:14.872Z,100844.69
2019-01-18T04:34:21.992Z,100848.04
2019-01-18T04:37:38.210Z,100845.09
2019-01-18T04:40:45.242Z,100851.82
2019-01-18T04:44:02.058Z,100841.73
2019-01-18T04:47:09.179Z,100849.30
2019-01-18T04:50:18.264Z,100860.22
2019-01-18T04:53:34.793Z,100851.41
2019-01-18T04:56:41.926Z,100861.89
2019-01-18T04:59:48.963Z,100864.42
2019-01-18T05:02:56.160Z,100876.61
2019-01-18T05:06:03.417Z,100892.13
2019-01-18T05:09:10.545Z,100894.25
2019-01-18T05:12:17.574Z,100898.85
2019-01-18T05:15:25.951Z,100900.56
2019-01-18T05:18:32.977Z,100916.10
2019-01-18T05:21:49.123Z,100921.93
2019-01-18T05:24:56.140Z,100921.05
2019-01-18T05:28:03.199Z,100922.28
2019-01-18T05:31:10.331Z,100934.98
2019-01-18T05:34:17.560Z,100932.85
2019-01-18T05:37:24.683Z,100939.53
2019-01-18T05:40:31.713Z,100933.66
2019-01-18T05:43:38.731Z,100939.15
2019-01-18T05:46:45.856Z,100944.61
2019-01-18T05:49:52.886Z,100944.53
2019-01-18T05:53:09.748Z,100943.27
2019-01-18T05:56:25.818Z,100944.95
2019-01-18T05:59:32.870Z,100952.87
2019-01-18T06:02:39.980Z,100957.42
2019-01-18T06:05:47.671Z,100960.42
2019-01-18T06:08:54.692Z,100959.48
2019-01-18T06:12:01.726Z,100959.89
2019-01-18T06:15:08.830Z,100958.27
2019-01-18T06:18:15.955Z,100956.23
2019-01-18T06:21:23.097Z,100970.08
2019-01-18T06:24:30.125Z,100971.76
2019-01-18T06:27:37.153Z,100965.78
2019-01-18T06:30:44.165Z,100970.39
2019-01-18T06:33:51.197Z,100975.08
2019-01-18T06:37:07.345Z,100974.70
2019-01-18T06:40:15.147Z,100977.64
2019-01-18T06:43:31.363Z,100981.28
2019-01-18T06:46:48.046Z,100979.01
2019-01-18T06:49:55.073Z,100989.05
2019-01-18T06:53:02.165Z,100989.05
2019-01-18T06:56:09.435Z,100989.87
2019-01-18T06:59:16.565Z,100990.30
2019-01-18T07:02:23.647Z,100992.45
2019-01-18T07:05:30.793Z,100998.74
2019-01-18T07:08:37.922Z,100996.94
2019-01-18T07:11:44.948Z,101005.94
2019-01-18T07:14:51.980Z,101003.84
2019-01-18T07:17:58.993Z,101007.15
2019-01-18T07:21:15.176Z,101008.84
2019-01-18T07:24:22.221Z,101009.24
2019-01-18T07:27:29.447Z,101022.69
2019-01-18T07:30:41.306Z,101028.93
2019-01-18T07:33:48.325Z,101028.49
2019-01-18T07:36:55.347Z,101041.64
2019-01-18T07:40:02.380Z,101048.00
2019-01-18T07:43:09.495Z,101050.05
2019-01-18T07:46:16.524Z,101053.52
2019-01-18T07:49:32.761Z,101049.25
2019-01-18T07:52:38.321Z,101058.92
2019-01-18T07:55:45.626Z,101063.11
2019-01-18T07:58:52.744Z,101061.45
2019-01-18T08:01:59.893Z,101060.59
2019-01-18T08:05:07.813Z,101064.85
2019-01-18T08:08:23.926Z,101069.42
2019-01-18T08:11:30.952Z,101076.88
2019-01-18T08:14:37.963Z,101077.84
2019-01-18T08:17:44.893Z,101082.45
2019-01-18T08:20:51.912Z,101080.41
2019-01-18T08:23:59.045Z,101084.56
2019-01-18T08:27:06.134Z,101090.95
2019-01-18T08:30:24.264Z,101084.73
2019-01-18T08:33:40.602Z,101084.74
2019-01-18T08:36:47.804Z,101085.58
2019-01-18T08:39:55.003Z,101082.25
2019-01-18T08:43:02.233Z,101085.20
2019-01-18T08:46:11.796Z,101083.09
2019-01-18T08:49:19.134Z,101085.64
2019-01-18T08:52:26.356Z,101082.70
2019-01-18T08:55:33.726Z,101088.17
2019-01-18T08:58:40.976Z,101094.06
2019-01-18T09:01:48.188Z,101100.39
2019-01-18T09:04:55.324Z,101091.14
2019-01-18T09:08:02.524Z,101093.66
2019-01-18T09:11:09.767Z,101102.95
2019-01-18T09:14:19.532Z,101099.18
2019-01-18T09:17:25.926Z,101103.80
2019-01-18T09:20:33.133Z,101108.84
2019-01-18T09:23:40.262Z,101110.11
2019-01-18T09:26:47.573Z,101113.07
2019-01-18T09:29:54.788Z,101117.71
2019-01-18T09:33:03.226Z,101120.64
2019-01-18T09:36:10.423Z,101143.40
2019-01-18T09:39:17.632Z,101148.05
2019-01-18T09:42:24.857Z,101157.33
2019-01-18T09:45:31.895Z,101155.19
2019-01-18T09:48:39.109Z,101165.73
2019-01-18T09:51:46.368Z,101161.09
2019-01-18T09:54:53.692Z,101161.12
2019-01-18T09:58:01.096Z,101159.00
2019-01-18T10:01:08.481Z,101164.91
2019-01-18T10:04:15.778Z,101167.84
2019-01-18T10:07:22.976Z,101159.84
2019-01-18T10:10:30.371Z,101161.94
2019-01-18T10:13:37.490Z,101169.55
2019-01-18T10:16:44.624Z,101170.80
2019-01-18T10:19:51.747Z,101169.94
2019-01-18T10:22:59.064Z,101171.64
2019-01-18T10:26:06.662Z,101175.44
2019-01-18T10:29:29.129Z,101174.16
2019-01-18T10:32:46.081Z,101173.30
2019-01-18T10:36:02.645Z,101184.28
2019-01-18T10:39:19.317Z,101182.58
2019-01-18T10:42:26.527Z,101185.13
2019-01-18T10:45:33.754Z,101193.53
2019-01-18T10:48:41.052Z,101191.87
2019-01-18T10:51:48.255Z,101192.70
2019-01-18T10:55:05.368Z,101183.00
2019-01-18T10:58:12.762Z,101186.80
2019-01-18T11:01:19.990Z,101190.19
2019-01-18T11:04:27.191Z,101190.18
2019-01-18T11:07:34.331Z,101204.50
2019-01-18T11:10:41.705Z,101205.78
2019-01-18T11:13:49.038Z,101212.91
2019-01-18T11:16:56.143Z,101223.45
2019-01-18T11:20:03.427Z,101219.25
2019-01-18T11:23:09.141Z,101222.62
2019-01-18T11:26:16.336Z,101217.98
2019-01-18T11:29:23.463Z,101221.77
2019-01-18T11:32:30.600Z,101221.32
2019-01-18T11:35:37.896Z,101215.83
2019-01-18T11:38:45.120Z,101215.42
2019-01-18T11:41:52.427Z,101217.09
2019-01-18T11:44:59.561Z,101229.32
2019-01-18T11:48:06.873Z,101218.32
2019-01-18T11:51:14.159Z,101213.23
2019-01-18T11:54:21.684Z,101209.44
2019-01-18T11:57:28.988Z,101213.61
2019-01-18T12:00:37.893Z,101223.35
2019-01-18T12:03:54.500Z,101216.50
2019-01-18T12:07:01.619Z,101220.27
2019-01-18T12:10:11.536Z,101225.92
2019-01-18T12:13:18.683Z,101220.02
2019-01-18T12:16:25.803Z,101217.42
2019-01-18T12:19:33.009Z,101213.45
2019-01-18T12:22:40.272Z,101220.34
2019-01-18T12:25:47.578Z,101223.00
2019-01-18T12:28:54.887Z,101224.73
2019-01-18T12:32:02.170Z,101216.75
2019-01-18T12:35:09.470Z,101227.30
2019-01-18T12:38:16.768Z,101226.05
2019-01-18T12:41:24.003Z,101229.45
2019-01-18T12:44:40.841Z,101218.42
2019-01-18T12:47:49.047Z,101223.95
2019-01-18T12:50:56.347Z,101226.44
2019-01-18T12:54:03.551Z,101220.94
2019-01-18T12:57:10.899Z,101225.20
2019-01-18T13:00:19.758Z,101227.33
2019-01-18T13:03:26.920Z,101215.05
2019-01-18T13:06:34.047Z,101220.22
2019-01-18T13:09:41.343Z,101214.61
2019-01-18T13:12:48.636Z,101213.70
2019-01-18T13:16:24.475Z,101204.34
2019-01-18T13:19:31.614Z,101198.86
2019-01-18T13:22:38.744Z,101201.41
2019-01-18T13:25:46.044Z,101212.42
2019-01-18T13:28:53.177Z,101220.92
2019-01-18T13:32:00.321Z,101221.33
2019-01-18T13:35:08.758Z,101225.58
2019-01-18T13:38:16.068Z,101223.45
2019-01-18T13:41:23.359Z,101234.05
2019-01-18T13:44:30.629Z,101240.37
2019-01-18T13:47:38.054Z,101240.37
2019-01-18T13:50:44.748Z,101239.49
2019-01-18T13:53:51.964Z,101253.09
2019-01-18T13:56:59.278Z,101247.53
2019-01-18T14:00:06.859Z,101248.81
2019-01-18T14:03:14.167Z,101245.00
2019-01-18T14:06:21.467Z,101252.62
2019-01-18T14:09:28.766Z,101262.77
2019-01-18T14:12:35.993Z,101263.20
2019-01-18T14:15:43.191Z,101261.44
2019-01-18T14:18:50.340Z,101269.97
2019-01-18T14:21:57.652Z,101277.91
2019-01-18T14:25:05.298Z,101277.96
2019-01-18T14:28:21.697Z,101278.00
2019-01-18T14:31:28.891Z,101282.18
2019-01-18T14:34:45.649Z,101281.34
2019-01-18T14:37:51.435Z,101287.71
2019-01-18T14:41:07.957Z,101285.55
2019-01-18T14:44:24.642Z,101299.56
2019-01-18T14:47:31.770Z,101301.25
2019-01-18T14:50:39.074Z,101299.11
2019-01-18T14:53:46.319Z,101305.45
2019-01-18T14:56:53.475Z,101313.48
2019-01-18T15:00:00.793Z,101311.37
2019-01-18T15:03:17.786Z,101314.74
2019-01-18T15:06:34.461Z,101313.52
2019-01-18T15:09:41.594Z,101321.97
2019-01-18T15:12:51.164Z,101318.59
2019-01-18T15:15:58.431Z,101319.42
2019-01-18T15:19:06.012Z,101315.61
2019-01-18T15:22:13.313Z,101318.61
2019-01-18T15:25:20.813Z,101321.14
2019-01-18T15:28:27.947Z,101323.67
2019-01-18T15:31:35.141Z,101326.66
2019-01-18T15:34:52.326Z,101328.30
2019-01-18T15:38:10.698Z,101326.60
2019-01-18T15:41:27.165Z,101335.48
2019-01-18T15:44:34.290Z,101334.64
2019-01-18T15:47:41.566Z,101341.38
2019-01-18T15:50:48.699Z,101344.79
2019-01-18T15:54:05.564Z,101346.88
2019-01-18T15:57:22.237Z,101349.41
2019-01-18T16:00:41.233Z,101347.36
2019-01-18T16:03:48.603Z,101352.81
2019-01-18T16:06:55.798Z,101348.59
2019-01-18T16:10:03.213Z,101353.66
2019-01-18T16:13:11.782Z,101351.95
2019-01-18T16:16:23.289Z,101348.58
2019-01-18T16:19:39.759Z,101346.47
2019-01-18T16:22:47.184Z,101350.67
2019-01-18T16:26:03.793Z,101350.28
2019-01-18T16:29:20.749Z,101353.62
2019-01-18T16:32:37.130Z,101351.94
2019-01-18T16:35:44.368Z,101362.53
2019-01-18T16:38:51.150Z,101357.05
2019-01-18T16:41:58.347Z,101362.51
2019-01-18T16:45:06.411Z,101359.52
2019-01-18T16:48:22.768Z,101360.80
2019-01-18T16:51:29.895Z,101358.67
2019-01-18T16:54:37.191Z,101356.61
2019-01-18T16:57:53.920Z,101357.44
2019-01-18T17:01:02.806Z,101361.23
2019-01-18T17:04:25.437Z,101357.88
2019-01-18T17:07:32.556Z,101358.30
2019-01-18T17:10:39.876Z,101353.64
2019-01-18T17:13:56.586Z,101353.61
2019-01-18T17:17:13.399Z,101357.84
2019-01-18T17:20:32.346Z,101350.66
2019-01-18T17:23:39.598Z,101351.52
2019-01-18T17:26:46.936Z,101352.80
2019-01-18T17:29:54.076Z,101349.85
2019-01-18T17:33:01.381Z,101348.16
2019-01-18T17:36:31.550Z,101350.26
2019-01-18T17:40:00.271Z,101351.56
2019-01-18T17:43:13.666Z,101360.00
2019-01-18T17:47:08.477Z,101359.59
2019-01-18T17:50:55.892Z,101358.75
2019-01-18T17:55:05.962Z,101365.09
2019-01-18T17:58:38.612Z,101362.97
2019-01-18T18:02:15.026Z,101368.05
2019-01-18T18:05:49.702Z,101371.86
2019-01-18T18:09:08.053Z,101368.92
2019-01-18T18:12:35.360Z,101373.13
2019-01-18T18:16:20.559Z,101380.29
2019-01-18T18:20:07.726Z,101378.61
2019-01-18T18:23:40.669Z,101381.16
2019-01-18T18:27:27.833Z,101385.37
2019-01-18T18:31:05.660Z,101390.84
2019-01-18T18:35:05.651Z,101388.33
2019-01-18T18:39:10.077Z,101393.80
2019-01-18T18:42:35.253Z,101392.53
2019-01-18T18:46:08.811Z,101393.81
2019-01-18T18:49:42.320Z,101401.41
2019-01-18T18:53:39.864Z,101399.70
2019-01-18T18:57:15.899Z,101400.98
2019-01-18T19:00:41.864Z,101405.62
2019-01-18T19:04:20.876Z,101399.72
2019-01-18T19:07:54.158Z,101407.31
2019-01-18T19:11:24.768Z,101417.02
2019-01-18T19:14:57.829Z,101414.47
2019-01-18T19:18:30.737Z,101422.06
2019-01-18T19:22:05.013Z,101428.83
2019-01-18T19:25:48.308Z,101419.55
2019-01-18T19:30:01.652Z,101418.28
2019-01-18T19:33:17.196Z,101428.42
2019-01-18T19:37:23.933Z,101432.63
2019-01-18T19:40:46.675Z,101436.84
2019-01-18T19:44:24.866Z,101440.65
2019-01-18T19:47:39.571Z,101441.47
2019-01-18T19:51:28.934Z,101437.70
2019-01-18T19:55:02.823Z,101438.55
2019-01-18T19:58:42.785Z,101436.02
2019-01-18T20:02:38.934Z,101431.79
2019-01-18T20:06:22.683Z,101436.44
2019-01-18T20:10:01.702Z,101434.31
2019-01-18T20:14:15.697Z,101438.55
2019-01-18T20:18:11.615Z,101441.91
2019-01-18T20:21:56.193Z,101451.21
2019-01-18T20:25:51.247Z,101450.36
2019-01-18T20:29:45.444Z,101445.72
2019-01-18T20:33:18.223Z,101452.05
2019-01-18T20:36:56.678Z,101450.78
2019-01-18T20:40:47.069Z,101458.38
2019-01-18T20:44:31.550Z,101460.48
2019-01-18T20:48:30.044Z,101457.95
2019-01-18T20:51:59.385Z,101465.13
2019-01-18T20:55:33.500Z,101467.67
2019-01-18T20:58:56.197Z,101469.78
2019-01-18T21:02:48.756Z,101473.14
2019-01-18T21:06:36.565Z,101468.91
2019-01-18T21:10:26.934Z,101469.77
2019-01-18T21:14:01.889Z,101474.43
2019-01-18T21:17:36.968Z,101475.65
2019-01-18T21:21:56.169Z,101469.76
2019-01-18T21:26:00.015Z,101472.30
2019-01-18T21:29:42.048Z,101479.86
2019-01-18T21:33:41.863Z,101478.20
2019-01-18T21:37:15.566Z,101476.06
2019-01-18T21:41:01.638Z,101478.16
2019-01-18T21:45:02.259Z,101475.23
2019-01-18T21:49:00.007Z,101473.97
2019-01-18T21:52:42.527Z,101476.52
2019-01-18T21:56:15.468Z,101476.47
2019-01-18T21:59:50.509Z,101481.58
2019-01-18T22:03:36.684Z,101469.33
2019-01-18T22:07:24.549Z,101469.30
2019-01-18T22:10:57.619Z,101471.39
2019-01-18T22:15:02.209Z,101457.92
2019-01-18T22:18:30.840Z,101466.33
2019-01-18T22:21:54.015Z,101460.45
2019-01-18T22:25:26.401Z,101466.34
2019-01-18T22:29:03.762Z,101468.41
2019-01-18T22:32:55.544Z,101475.19
2019-01-18T22:36:29.016Z,101483.58
2019-01-18T22:39:59.493Z,101480.21
2019-01-18T22:43:38.627Z,101478.10
2019-01-18T22:47:27.254Z,101482.31
2019-01-18T22:51:07.432Z,101485.27
2019-01-18T22:54:42.836Z,101481.93
2019-01-18T22:58:37.401Z,101484.43
2019-01-18T23:02:27.723Z,101481.09
2019-01-18T23:06:02.014Z,101487.37
2019-01-18T23:09:52.121Z,101479.33
2019-01-18T23:13:21.839Z,101488.25
2019-01-18T23:17:07.586Z,101492.05
2019-01-18T23:21:11.501Z,101495.35
2019-01-18T23:24:41.683Z,101495.81
2019-01-18T23:28:46.613Z,101499.19
2019-01-18T23:32:40.095Z,101501.63
2019-01-18T23:36:17.377Z,101497.95
2019-01-18T23:40:20.901Z,101495.39
2019-01-18T23:44:15.685Z,101494.55
2019-01-18T23:48:07.658Z,101489.41
2019-01-18T23:52:02.226Z,101494.13
2019-01-18T23:55:37.247Z,101492.86
2019-01-18T23:59:12.438Z,101491.14
